sensor_id;sensor_type;location;lat;lon;timestamp;pressure;altitude;pressure_sealevel;temperature;humidity
7754;BME280;3921;42.266;23.122;2023-07-31T00:47:32;94733.91;;;21.51;70.57
7754;BME280;3921;42.266;23.122;2023-07-31T01:18:33;95223.84;;;24.42;72.35
7754;BME280;3921;42.266;23.122;2023-07-31T01:24:38;94722.59;;;21.40;71.54
7754;BME280;3921;42.266;23.122;2023-07-31T01:43:50;94606.72;;;20.70;71.07
7754;BME280;3921;42.266;23.122;2023-07-31T01:59:38;94698.41;;;20.89;72.52
7754;BME280;3921;42.266;23.122;2023-07-31T02:10:25;94713.25;;;20.82;69.67
7754;BME280;3921;42.266;23.122;2023-07-31T04:56:45;94759.50;;;20.62;71.62
7754;BME280;3921;42.266;23.122;2023-07-31T04:59:13;95365.47;;;24.50;72.11
7754;BME280;3921;42.266;23.122;2023-07-31T05:09:29;95193.69;;;23.36;72.05
7754;BME280;3921;42.266;23.122;2023-07-31T05:12:01;94770.06;;;20.86;71.49
7754;BME280;3921;42.266;23.122;2023-07-31T05:20:08;94848.31;;;21.17;71.88
7754;BME280;3921;42.266;23.122;2023-07-31T05:22:39;94833.78;;;21.17;71.76
7754;BME280;3921;42.266;23.122;2023-07-31T05:25:11;94916.97;;;21.82;71.78
7754;BME280;3921;42.266;23.122;2023-07-31T05:27:40;94738.28;;;20.76;71.89
7754;BME280;3921;42.266;23.122;2023-07-31T05:30:08;94809.16;;;21.16;71.92
7754;BME280;3921;42.266;23.122;2023-07-31T05:32:57;94998.03;;;22.38;71.98
7754;BME280;3921;42.266;23.122;2023-07-31T05:35:24;95198.22;;;23.59;72.37
7754;BME280;3921;42.266;23.122;2023-07-31T05:37:54;94911.16;;;21.50;72.20
7754;BME280;3921;42.266;23.122;2023-07-31T05:40:22;95051.53;;;22.43;72.78
7754;BME280;3921;42.266;23.122;2023-07-31T05:45:44;94839.94;;;21.29;72.26
7754;BME280;3921;42.266;23.122;2023-07-31T05:48:16;94855.84;;;21.34;72.47
7754;BME280;3921;42.266;23.122;2023-07-31T05:50:46;94797.31;;;20.85;72.81
7754;BME280;3921;42.266;23.122;2023-07-31T05:53:16;95364.97;;;24.57;73.40
7754;BME280;3921;42.266;23.122;2023-07-31T05:55:48;95362.13;;;24.62;73.22
7754;BME280;3921;42.266;23.122;2023-07-31T05:58:17;94758.25;;;20.69;72.82
7754;BME280;3921;42.266;23.122;2023-07-31T06:00:48;94828.75;;;21.16;73.01
7754;BME280;3921;42.266;23.122;2023-07-31T06:08:43;95374.59;;;24.81;73.29
7754;BME280;3921;42.266;23.122;2023-07-31T06:11:19;94769.22;;;20.85;73.29
7754;BME280;3921;42.266;23.122;2023-07-31T06:16:46;94842.84;;;21.23;71.16
7754;BME280;3921;42.266;23.122;2023-07-31T06:19:34;94829.47;;;21.34;69.75
7754;BME280;3921;42.266;23.122;2023-07-31T06:22:04;94857.47;;;21.50;69.82
7754;BME280;3921;42.266;23.122;2023-07-31T06:24:37;94842.69;;;21.55;69.24
7754;BME280;3921;42.266;23.122;2023-07-31T06:27:07;94831.72;;;21.38;69.19
7754;BME280;3921;42.266;23.122;2023-07-31T06:29:37;95075.75;;;22.80;68.90
7754;BME280;3921;42.266;23.122;2023-07-31T06:32:08;94849.09;;;21.62;69.25
7754;BME280;3921;42.266;23.122;2023-07-31T06:34:40;94832.66;;;21.37;69.37
7754;BME280;3921;42.266;23.122;2023-07-31T06:37:15;95089.47;;;23.08;68.81
7754;BME280;3921;42.266;23.122;2023-07-31T06:39:44;94960.72;;;22.06;68.63
7754;BME280;3921;42.266;23.122;2023-07-31T06:42:16;95394.47;;;24.64;68.10
7754;BME280;3921;42.266;23.122;2023-07-31T06:44:49;94790.63;;;21.13;68.28
7754;BME280;3921;42.266;23.122;2023-07-31T06:47:37;95031.47;;;22.78;67.78
7754;BME280;3921;42.266;23.122;2023-07-31T06:50:09;94807.38;;;21.47;66.81
7754;BME280;3921;42.266;23.122;2023-07-31T06:52:36;94831.94;;;21.64;66.03
7754;BME280;3921;42.266;23.122;2023-07-31T06:55:17;95173.69;;;23.69;65.04
7754;BME280;3921;42.266;23.122;2023-07-31T06:58:00;94821.91;;;21.46;65.18
7754;BME280;3921;42.266;23.122;2023-07-31T07:00:30;94835.59;;;21.60;64.67
7754;BME280;3921;42.266;23.122;2023-07-31T07:03:29;94780.59;;;21.24;64.48
7754;BME280;3921;42.266;23.122;2023-07-31T07:05:58;94780.81;;;21.35;64.35
7754;BME280;3921;42.266;23.122;2023-07-31T07:08:28;95376.63;;;25.03;64.46
7754;BME280;3921;42.266;23.122;2023-07-31T07:10:59;94773.47;;;21.15;64.88
7754;BME280;3921;42.266;23.122;2023-07-31T07:13:36;94827.81;;;21.47;65.23
7754;BME280;3921;42.266;23.122;2023-07-31T07:16:11;95220.97;;;24.19;64.21
7754;BME280;3921;42.266;23.122;2023-07-31T07:19:07;94833.84;;;21.60;63.97
7754;BME280;3921;42.266;23.122;2023-07-31T07:21:36;94764.97;;;21.14;63.90
7754;BME280;3921;42.266;23.122;2023-07-31T07:24:16;94792.22;;;21.44;63.04
7754;BME280;3921;42.266;23.122;2023-07-31T07:27:10;94752.72;;;21.35;62.93
7754;BME280;3921;42.266;23.122;2023-07-31T07:29:45;94910.59;;;22.17;63.00
7754;BME280;3921;42.266;23.122;2023-07-31T07:32:13;95260.47;;;24.58;61.71
7754;BME280;3921;42.266;23.122;2023-07-31T07:34:42;95024.13;;;22.86;62.21
7754;BME280;3921;42.266;23.122;2023-07-31T07:37:12;94984.94;;;22.71;62.51
7754;BME280;3921;42.266;23.122;2023-07-31T07:39:39;95208.81;;;24.08;62.15
7754;BME280;3921;42.266;23.122;2023-07-31T07:42:06;95004.09;;;23.07;62.31
7754;BME280;3921;42.266;23.122;2023-07-31T07:44:33;94846.53;;;22.05;62.63
7754;BME280;3921;42.266;23.122;2023-07-31T07:47:01;95378.16;;;25.32;62.57
7754;BME280;3921;42.266;23.122;2023-07-31T07:49:36;94914.84;;;22.45;61.73
7754;BME280;3921;42.266;23.122;2023-07-31T07:52:06;94795.75;;;21.98;61.34
7754;BME280;3921;42.266;23.122;2023-07-31T07:54:33;95023.44;;;23.25;60.61
7754;BME280;3921;42.266;23.122;2023-07-31T07:57:03;94787.53;;;21.79;60.49
7754;BME280;3921;42.266;23.122;2023-07-31T07:59:34;94846.66;;;22.30;59.26
7754;BME280;3921;42.266;23.122;2023-07-31T08:02:01;95209.31;;;24.55;59.94
7754;BME280;3921;42.266;23.122;2023-07-31T08:04:32;94812.75;;;22.14;58.69
7754;BME280;3921;42.266;23.122;2023-07-31T08:07:01;94838.25;;;22.42;58.17
7754;BME280;3921;42.266;23.122;2023-07-31T08:09:30;94814.38;;;22.15;57.77
7754;BME280;3921;42.266;23.122;2023-07-31T08:12:06;95175.00;;;24.43;57.64
7754;BME280;3921;42.266;23.122;2023-07-31T08:14:33;95359.34;;;25.70;58.20
7754;BME280;3921;42.266;23.122;2023-07-31T08:17:02;95280.00;;;25.26;56.90
7754;BME280;3921;42.266;23.122;2023-07-31T08:19:29;95029.25;;;23.69;57.75
7754;BME280;3921;42.266;23.122;2023-07-31T08:22:05;95234.91;;;24.82;58.44
7754;BME280;3921;42.266;23.122;2023-07-31T08:24:38;94780.28;;;22.00;57.95
7754;BME280;3921;42.266;23.122;2023-07-31T08:27:08;95209.50;;;24.64;57.99
7754;BME280;3921;42.266;23.122;2023-07-31T08:29:39;95383.66;;;25.79;57.83
7754;BME280;3921;42.266;23.122;2023-07-31T08:32:12;94848.25;;;22.60;57.53
7754;BME280;3921;42.266;23.122;2023-07-31T08:34:52;94698.25;;;21.62;57.24
7754;BME280;3921;42.266;23.122;2023-07-31T08:37:23;95357.19;;;25.77;57.33
7754;BME280;3921;42.266;23.122;2023-07-31T08:39:55;94904.34;;;23.04;56.01
7754;BME280;3921;42.266;23.122;2023-07-31T08:42:29;94826.34;;;22.41;56.63
7754;BME280;3921;42.266;23.122;2023-07-31T08:45:18;95125.88;;;24.35;56.60
7754;BME280;3921;42.266;23.122;2023-07-31T08:47:52;94796.47;;;22.15;56.80
7754;BME280;3921;42.266;23.122;2023-07-31T08:50:35;95360.72;;;25.76;56.87
7754;BME280;3921;42.266;23.122;2023-07-31T08:53:20;95330.00;;;25.85;55.65
7754;BME280;3921;42.266;23.122;2023-07-31T08:55:59;94957.22;;;23.32;54.35
7754;BME280;3921;42.266;23.122;2023-07-31T08:58:32;94879.00;;;22.99;54.10
7754;BME280;3921;42.266;23.122;2023-07-31T09:01:05;94777.13;;;22.38;53.62
7754;BME280;3921;42.266;23.122;2023-07-31T09:06:30;94849.69;;;22.91;53.38
7754;BME280;3921;42.266;23.122;2023-07-31T09:09:17;95333.97;;;26.02;53.81
7754;BME280;3921;42.266;23.122;2023-07-31T09:12:26;95361.97;;;26.19;52.37
7754;BME280;3921;42.266;23.122;2023-07-31T09:15:03;94768.00;;;22.46;52.39
7754;BME280;3921;42.266;23.122;2023-07-31T09:17:39;94819.84;;;22.77;53.45
7754;BME280;3921;42.266;23.122;2023-07-31T09:20:15;94815.31;;;22.80;53.22
7754;BME280;3921;42.266;23.122;2023-07-31T09:22:54;95354.41;;;26.29;52.22
7754;BME280;3921;42.266;23.122;2023-07-31T09:25:34;94823.00;;;22.80;52.91
7754;BME280;3921;42.266;23.122;2023-07-31T09:28:33;94729.19;;;22.40;52.24
7754;BME280;3921;42.266;23.122;2023-07-31T09:31:08;94815.53;;;22.77;52.63
7754;BME280;3921;42.266;23.122;2023-07-31T09:33:55;94818.97;;;22.91;52.55
7754;BME280;3921;42.266;23.122;2023-07-31T09:36:30;94785.81;;;22.75;51.14
7754;BME280;3921;42.266;23.122;2023-07-31T09:39:13;94749.81;;;22.64;49.90
7754;BME280;3921;42.266;23.122;2023-07-31T09:42:06;94794.22;;;22.77;50.13
7754;BME280;3921;42.266;23.122;2023-07-31T09:44:48;94807.59;;;22.95;51.19
7754;BME280;3921;42.266;23.122;2023-07-31T09:47:46;94780.16;;;22.70;51.88
7754;BME280;3921;42.266;23.122;2023-07-31T09:50:37;94780.50;;;22.78;52.64
7754;BME280;3921;42.266;23.122;2023-07-31T09:53:36;94910.03;;;23.74;51.96
7754;BME280;3921;42.266;23.122;2023-07-31T09:56:25;95190.16;;;25.61;50.43
7754;BME280;3921;42.266;23.122;2023-07-31T09:59:20;94807.50;;;23.22;50.43
7754;BME280;3921;42.266;23.122;2023-07-31T10:02:17;94726.19;;;22.60;49.84
7754;BME280;3921;42.266;23.122;2023-07-31T10:05:05;94833.66;;;23.27;49.75
7754;BME280;3921;42.266;23.122;2023-07-31T10:07:43;95321.00;;;26.40;49.58
7754;BME280;3921;42.266;23.122;2023-07-31T10:10:19;94734.59;;;22.75;48.53
7754;BME280;3921;42.266;23.122;2023-07-31T10:16:21;94989.56;;;24.87;47.13
7754;BME280;3921;42.266;23.122;2023-07-31T10:18:52;94805.38;;;23.67;44.89
7754;BME280;3921;42.266;23.122;2023-07-31T10:21:23;94836.72;;;23.96;45.48
7754;BME280;3921;42.266;23.122;2023-07-31T10:23:52;94831.09;;;24.03;45.26
7754;BME280;3921;42.266;23.122;2023-07-31T10:26:23;95151.59;;;25.85;45.30
7754;BME280;3921;42.266;23.122;2023-07-31T10:28:52;94824.13;;;23.93;45.43
7754;BME280;3921;42.266;23.122;2023-07-31T10:31:32;94709.06;;;23.63;47.43
7754;BME280;3921;42.266;23.122;2023-07-31T11:08:26;94670.66;;;24.46;44.34
7754;BME280;3921;42.266;23.122;2023-07-31T11:16:21;94688.59;;;24.92;42.83
7754;BME280;3921;42.266;23.122;2023-07-31T11:18:53;94752.25;;;25.35;42.33
7754;BME280;3921;42.266;23.122;2023-07-31T11:21:41;94668.72;;;24.83;42.23
7754;BME280;3921;42.266;23.122;2023-07-31T11:40:23;94570.75;;;25.10;40.15
7754;BME280;3921;42.266;23.122;2023-07-31T11:43:07;94628.50;;;25.72;40.87
7754;BME280;3921;42.266;23.122;2023-07-31T11:45:54;94785.78;;;26.87;39.89
7754;BME280;3921;42.266;23.122;2023-07-31T11:48:33;94579.19;;;25.55;40.24
7754;BME280;3921;42.266;23.122;2023-07-31T11:51:17;94600.91;;;25.62;39.35
7754;BME280;3921;42.266;23.122;2023-07-31T11:53:59;94692.31;;;26.00;38.43
7754;BME280;3921;42.266;23.122;2023-07-31T11:56:33;95242.16;;;29.57;38.25
7754;BME280;3921;42.266;23.122;2023-07-31T11:59:20;95244.94;;;29.44;37.96
7754;BME280;3921;42.266;23.122;2023-07-31T12:10:07;94663.16;;;26.11;38.50
7754;BME280;3921;42.266;23.122;2023-07-31T12:12:58;94604.72;;;25.90;36.97
7754;BME280;3921;42.266;23.122;2023-07-31T12:21:14;95195.00;;;30.32;36.84
7754;BME280;3921;42.266;23.122;2023-07-31T12:23:51;94677.63;;;27.07;37.20
7754;BME280;3921;42.266;23.122;2023-07-31T12:29:58;94680.75;;;27.31;34.51
7754;BME280;3921;42.266;23.122;2023-07-31T12:32:40;95177.66;;;30.81;34.20
7754;BME280;3921;42.266;23.122;2023-07-31T12:35:19;94708.50;;;27.98;35.30
7754;BME280;3921;42.266;23.122;2023-07-31T12:37:52;94703.59;;;27.86;34.90
7754;BME280;3921;42.266;23.122;2023-07-31T12:40:21;95186.44;;;31.17;34.58
7754;BME280;3921;42.266;23.122;2023-07-31T12:43:04;94609.25;;;27.62;35.08
7754;BME280;3921;42.266;23.122;2023-07-31T12:45:56;94597.81;;;27.36;36.13
7754;BME280;3921;42.266;23.122;2023-07-31T12:48:29;95192.44;;;31.18;34.68
7754;BME280;3921;42.266;23.122;2023-07-31T12:51:08;94563.31;;;27.27;34.90
7754;BME280;3921;42.266;23.122;2023-07-31T12:54:01;95183.41;;;31.22;34.63
7754;BME280;3921;42.266;23.122;2023-07-31T12:56:46;95166.88;;;31.23;34.13
7754;BME280;3921;42.266;23.122;2023-07-31T12:59:17;94657.28;;;28.03;35.24
7754;BME280;3921;42.266;23.122;2023-07-31T13:01:56;94566.72;;;27.47;35.69
7754;BME280;3921;42.266;23.122;2023-07-31T13:04:33;95163.66;;;31.49;35.55
7754;BME280;3921;42.266;23.122;2023-07-31T13:07:11;94605.41;;;27.87;35.20
7754;BME280;3921;42.266;23.122;2023-07-31T13:10:06;94541.47;;;27.50;33.65
7754;BME280;3921;42.266;23.122;2023-07-31T13:13:01;94538.22;;;27.39;34.43
7754;BME280;3921;42.266;23.122;2023-07-31T13:15:41;95166.88;;;31.33;34.72
7754;BME280;3921;42.266;23.122;2023-07-31T13:21:03;94594.16;;;27.38;34.52
7754;BME280;3921;42.266;23.122;2023-07-31T13:23:48;94761.34;;;28.35;34.75
7754;BME280;3921;42.266;23.122;2023-07-31T13:26:17;95166.22;;;31.11;34.33
7754;BME280;3921;42.266;23.122;2023-07-31T13:29:07;95178.72;;;30.98;34.86
7754;BME280;3921;42.266;23.122;2023-07-31T13:31:39;95171.25;;;30.85;35.22
7754;BME280;3921;42.266;23.122;2023-07-31T13:34:19;94562.72;;;26.83;36.12
7754;BME280;3921;42.266;23.122;2023-07-31T13:36:53;94642.16;;;26.99;35.88
7754;BME280;3921;42.266;23.122;2023-07-31T13:39:25;94827.00;;;28.32;35.67
7754;BME280;3921;42.266;23.122;2023-07-31T13:41:56;95162.03;;;30.34;35.68
7754;BME280;3921;42.266;23.122;2023-07-31T13:44:43;94702.56;;;27.27;36.72
7754;BME280;3921;42.266;23.122;2023-07-31T13:47:21;94542.38;;;26.08;37.00
7754;BME280;3921;42.266;23.122;2023-07-31T13:50:04;95151.63;;;30.05;37.45
7754;BME280;3921;42.266;23.122;2023-07-31T13:52:44;94652.16;;;26.62;37.33
7754;BME280;3921;42.266;23.122;2023-07-31T13:55:22;95168.50;;;30.09;37.30
7754;BME280;3921;42.266;23.122;2023-07-31T13:57:53;95169.88;;;30.04;37.73
7754;BME280;3921;42.266;23.122;2023-07-31T14:00:33;94716.84;;;27.31;38.44
7754;BME280;3921;42.266;23.122;2023-07-31T14:03:00;94941.47;;;28.63;38.01
7754;BME280;3921;42.266;23.122;2023-07-31T14:05:35;94626.56;;;26.49;38.34
7754;BME280;3921;42.266;23.122;2023-07-31T14:08:19;94624.41;;;26.75;38.61
7754;BME280;3921;42.266;23.122;2023-07-31T14:11:17;94593.28;;;26.57;38.30
7754;BME280;3921;42.266;23.122;2023-07-31T14:19:41;94618.75;;;26.60;37.99
7754;BME280;3921;42.266;23.122;2023-07-31T14:24:48;94617.00;;;26.82;37.96
7754;BME280;3921;42.266;23.122;2023-07-31T14:33:37;94619.63;;;26.91;38.62
7754;BME280;3921;42.266;23.122;2023-07-31T14:36:34;94913.34;;;28.79;37.62
7754;BME280;3921;42.266;23.122;2023-07-31T14:39:11;94918.16;;;29.13;36.68
7754;BME280;3921;42.266;23.122;2023-07-31T14:41:41;94541.16;;;26.74;36.72
7754;BME280;3921;42.266;23.122;2023-07-31T14:44:08;95132.34;;;30.56;37.28
7754;BME280;3921;42.266;23.122;2023-07-31T14:46:36;95037.63;;;30.05;37.45
7754;BME280;3921;42.266;23.122;2023-07-31T14:49:05;94669.66;;;27.50;37.33
7754;BME280;3921;42.266;23.122;2023-07-31T14:51:40;94547.88;;;26.66;37.70
7754;BME280;3921;42.266;23.122;2023-07-31T14:54:14;94476.31;;;26.39;37.92
7754;BME280;3921;42.266;23.122;2023-07-31T14:56:53;94544.16;;;26.80;37.25
7754;BME280;3921;42.266;23.122;2023-07-31T14:59:26;95030.44;;;29.80;37.97
7754;BME280;3921;42.266;23.122;2023-07-31T15:01:55;95068.56;;;30.36;37.10
7754;BME280;3921;42.266;23.122;2023-07-31T15:04:24;94999.63;;;29.86;36.87
7754;BME280;3921;42.266;23.122;2023-07-31T15:07:02;94588.81;;;27.20;37.37
7754;BME280;3921;42.266;23.122;2023-07-31T15:15:33;94573.53;;;27.58;35.98
7754;BME280;3921;42.266;23.122;2023-07-31T15:18:11;94581.81;;;27.61;35.44
7754;BME280;3921;42.266;23.122;2023-07-31T15:20:38;94624.66;;;27.73;34.68
7754;BME280;3921;42.266;23.122;2023-07-31T15:23:28;94601.03;;;27.78;34.04
7754;BME280;3921;42.266;23.122;2023-07-31T15:28:48;94574.50;;;27.66;35.00
7754;BME280;3921;42.266;23.122;2023-07-31T15:31:17;94766.75;;;28.90;35.33
7754;BME280;3921;42.266;23.122;2023-07-31T15:33:50;95009.75;;;30.46;35.43
7754;BME280;3921;42.266;23.122;2023-07-31T15:36:34;94528.28;;;27.34;34.73
7754;BME280;3921;42.266;23.122;2023-07-31T15:39:01;94768.00;;;28.66;35.68
7754;BME280;3921;42.266;23.122;2023-07-31T15:41:32;94585.50;;;27.59;34.79
7754;BME280;3921;42.266;23.122;2023-07-31T15:44:05;94611.59;;;27.65;35.97
7754;BME280;3921;42.266;23.122;2023-07-31T15:46:46;94627.47;;;27.61;35.73
7754;BME280;3921;42.266;23.122;2023-07-31T15:49:14;95031.31;;;30.37;35.40
7754;BME280;3921;42.266;23.122;2023-07-31T15:51:45;94823.00;;;29.17;35.21
7754;BME280;3921;42.266;23.122;2023-07-31T15:54:15;94740.56;;;28.46;36.31
7754;BME280;3921;42.266;23.122;2023-07-31T15:56:42;94851.06;;;29.02;36.11
7754;BME280;3921;42.266;23.122;2023-07-31T15:59:09;94604.69;;;27.75;36.33
7754;BME280;3921;42.266;23.122;2023-07-31T16:01:40;95049.19;;;30.40;36.15
7754;BME280;3921;42.266;23.122;2023-07-31T16:04:07;94824.09;;;28.95;36.37
7754;BME280;3921;42.266;23.122;2023-07-31T16:06:37;95068.41;;;30.37;36.23
7754;BME280;3921;42.266;23.122;2023-07-31T16:09:04;94878.81;;;29.39;37.00
7754;BME280;3921;42.266;23.122;2023-07-31T16:11:34;94455.81;;;26.68;37.25
7754;BME280;3921;42.266;23.122;2023-07-31T16:14:01;94840.31;;;28.97;36.97
7754;BME280;3921;42.266;23.122;2023-07-31T16:16:29;94843.41;;;28.81;37.26
7754;BME280;3921;42.266;23.122;2023-07-31T16:19:00;94669.09;;;27.46;37.32
7754;BME280;3921;42.266;23.122;2023-07-31T16:21:27;94637.22;;;27.47;38.32
7754;BME280;3921;42.266;23.122;2023-07-31T16:23:56;95142.06;;;30.64;38.76
7754;BME280;3921;42.266;23.122;2023-07-31T16:26:24;95046.22;;;29.96;37.96
7754;BME280;3921;42.266;23.122;2023-07-31T16:28:51;95049.22;;;29.92;38.06
7754;BME280;3921;42.266;23.122;2023-07-31T16:31:24;94834.63;;;28.43;38.30
7754;BME280;3921;42.266;23.122;2023-07-31T16:34:09;94653.63;;;27.06;38.54
7754;BME280;3921;42.266;23.122;2023-07-31T16:36:43;94626.53;;;26.91;38.13
7754;BME280;3921;42.266;23.122;2023-07-31T16:39:12;94636.06;;;27.00;38.32
7754;BME280;3921;42.266;23.122;2023-07-31T16:41:39;94735.97;;;27.29;38.52
7754;BME280;3921;42.266;23.122;2023-07-31T16:44:06;95100.47;;;29.69;39.04
7754;BME280;3921;42.266;23.122;2023-07-31T16:46:35;95193.81;;;30.17;38.65
7754;BME280;3921;42.266;23.122;2023-07-31T16:49:02;94834.72;;;27.92;39.58
7754;BME280;3921;42.266;23.122;2023-07-31T16:51:30;95049.56;;;29.19;39.05
7754;BME280;3921;42.266;23.122;2023-07-31T16:53:57;95011.78;;;28.67;39.42
7754;BME280;3921;42.266;23.122;2023-07-31T16:56:25;94664.09;;;26.63;39.73
7754;BME280;3921;42.266;23.122;2023-07-31T16:58:52;94651.41;;;26.50;39.31
7754;BME280;3921;42.266;23.122;2023-07-31T17:01:21;94591.66;;;26.03;39.74
7754;BME280;3921;42.266;23.122;2023-07-31T17:03:52;94961.91;;;28.36;39.86
7754;BME280;3921;42.266;23.122;2023-07-31T17:06:19;94681.28;;;26.41;40.11
7754;BME280;3921;42.266;23.122;2023-07-31T17:08:48;94554.16;;;25.57;39.40
7754;BME280;3921;42.266;23.122;2023-07-31T17:11:15;94913.09;;;27.60;39.66
7754;BME280;3921;42.266;23.122;2023-07-31T17:13:42;94527.81;;;25.33;40.41
7754;BME280;3921;42.266;23.122;2023-07-31T17:16:09;95008.03;;;28.19;40.44
7754;BME280;3921;42.266;23.122;2023-07-31T17:18:36;95015.03;;;28.08;40.46
7754;BME280;3921;42.266;23.122;2023-07-31T17:21:03;95019.81;;;28.12;40.52
7754;BME280;3921;42.266;23.122;2023-07-31T17:23:33;94680.91;;;25.82;40.94
7754;BME280;3921;42.266;23.122;2023-07-31T17:26:02;94717.16;;;25.79;40.54
7754;BME280;3921;42.266;23.122;2023-07-31T17:28:31;94748.31;;;26.08;40.89
7754;BME280;3921;42.266;23.122;2023-07-31T17:31:02;95227.00;;;29.01;40.60
7754;BME280;3921;42.266;23.122;2023-07-31T17:33:29;94543.78;;;24.48;41.01
7754;BME280;3921;42.266;23.122;2023-07-31T17:35:56;94633.69;;;24.93;41.41
7754;BME280;3921;42.266;23.122;2023-07-31T17:38:27;94684.09;;;25.18;41.81
7754;BME280;3921;42.266;23.122;2023-07-31T17:40:54;94658.59;;;25.04;40.97
7754;BME280;3921;42.266;23.122;2023-07-31T17:43:24;94666.16;;;24.94;41.16
7754;BME280;3921;42.266;23.122;2023-07-31T17:45:52;94824.88;;;25.83;41.10
7754;BME280;3921;42.266;23.122;2023-07-31T17:48:19;95161.22;;;27.99;41.39
7754;BME280;3921;42.266;23.122;2023-07-31T17:50:49;94809.28;;;25.62;41.34
7754;BME280;3921;42.266;23.122;2023-07-31T17:53:17;94772.56;;;25.27;41.12
7754;BME280;3921;42.266;23.122;2023-07-31T17:55:44;94630.34;;;24.35;41.13
7754;BME280;3921;42.266;23.122;2023-07-31T17:58:14;95300.72;;;28.42;41.69
7754;BME280;3921;42.266;23.122;2023-07-31T18:00:43;94693.66;;;24.58;41.58
7754;BME280;3921;42.266;23.122;2023-07-31T18:03:10;95073.50;;;26.99;41.91
7754;BME280;3921;42.266;23.122;2023-07-31T18:05:38;94822.09;;;25.29;42.35
7754;BME280;3921;42.266;23.122;2023-07-31T18:08:05;94659.72;;;24.31;42.25
7754;BME280;3921;42.266;23.122;2023-07-31T18:10:43;95197.31;;;27.56;42.32
7754;BME280;3921;42.266;23.122;2023-07-31T18:18:38;94652.72;;;23.98;42.82
7754;BME280;3921;42.266;23.122;2023-07-31T18:21:09;94726.94;;;24.49;43.03
7754;BME280;3921;42.266;23.122;2023-07-31T18:27:12;94666.53;;;23.84;42.26
7754;BME280;3921;42.266;23.122;2023-07-31T18:46:25;94676.63;;;23.74;42.97
7754;BME280;3921;42.266;23.122;2023-07-31T18:51:55;94737.22;;;24.12;42.66
7754;BME280;3921;42.266;23.122;2023-07-31T18:54:31;94786.69;;;24.14;42.46
7754;BME280;3921;42.266;23.122;2023-07-31T18:57:20;94723.50;;;24.00;42.95
7754;BME280;3921;42.266;23.122;2023-07-31T19:00:08;95170.16;;;26.71;43.11
7754;BME280;3921;42.266;23.122;2023-07-31T19:02:53;94652.00;;;23.35;42.83
7754;BME280;3921;42.266;23.122;2023-07-31T19:28:54;94946.50;;;24.91;43.25
7754;BME280;3921;42.266;23.122;2023-07-31T19:31:27;94656.13;;;22.74;43.64
7754;BME280;3921;42.266;23.122;2023-07-31T19:33:59;94754.53;;;23.35;44.03
7754;BME280;3921;42.266;23.122;2023-07-31T19:36:33;94843.50;;;23.97;43.54
7754;BME280;3921;42.266;23.122;2023-07-31T19:39:06;94739.66;;;23.40;43.99
7754;BME280;3921;42.266;23.122;2023-07-31T19:47:49;95347.84;;;27.21;44.25
7754;BME280;3921;42.266;23.122;2023-07-31T19:50:31;95196.44;;;26.17;44.67
7754;BME280;3921;42.266;23.122;2023-07-31T19:53:06;94894.41;;;24.16;44.99
7754;BME280;3921;42.266;23.122;2023-07-31T19:55:47;94584.44;;;22.23;45.10
7754;BME280;3921;42.266;23.122;2023-07-31T19:58:20;95367.84;;;27.06;45.10
7754;BME280;3921;42.266;23.122;2023-07-31T20:03:28;94735.75;;;23.09;45.16
7754;BME280;3921;42.266;23.122;2023-07-31T20:05:59;94710.75;;;22.87;44.99
7754;BME280;3921;42.266;23.122;2023-07-31T20:08:33;94717.78;;;22.71;45.14
7754;BME280;3921;42.266;23.122;2023-07-31T20:11:05;95020.59;;;24.60;45.61
7754;BME280;3921;42.266;23.122;2023-07-31T20:13:37;95384.41;;;26.91;45.48
7754;BME280;3921;42.266;23.122;2023-07-31T20:16:07;94793.28;;;23.18;46.12
7754;BME280;3921;42.266;23.122;2023-07-31T20:18:38;95367.72;;;26.84;45.80
7754;BME280;3921;42.266;23.122;2023-07-31T20:21:09;94672.19;;;22.50;45.84
7754;BME280;3921;42.266;23.122;2023-07-31T20:23:39;94875.56;;;23.66;45.96
7754;BME280;3921;42.266;23.122;2023-07-31T20:26:16;94750.91;;;22.99;45.63
7754;BME280;3921;42.266;23.122;2023-07-31T20:29:04;94664.69;;;22.35;45.90
7754;BME280;3921;42.266;23.122;2023-07-31T20:31:52;95225.63;;;25.81;46.10
7754;BME280;3921;42.266;23.122;2023-07-31T21:53:15;94836.06;;;22.36;49.16
7754;BME280;3921;42.266;23.122;2023-07-31T21:55:46;95247.56;;;24.85;49.46
7754;BME280;3921;42.266;23.122;2023-07-31T22:14:31;94956.75;;;23.13;49.77
7754;BME280;3921;42.266;23.122;2023-07-31T22:19:57;94843.75;;;22.08;49.92
7754;BME280;3921;42.266;23.122;2023-07-31T22:22:44;94687.25;;;20.90;49.91
7754;BME280;3921;42.266;23.122;2023-07-31T22:27:59;94728.41;;;21.14;50.35
7754;BME280;3921;42.266;23.122;2023-07-31T22:33:34;94794.22;;;21.67;50.40
7754;BME280;3921;42.266;23.122;2023-07-31T22:38:50;94678.06;;;20.87;50.54
7754;BME280;3921;42.266;23.122;2023-07-31T23:59:13;95325.88;;;24.79;54.42
